Time;durP1;ratioP1;P1;durP2;ratioP2;P2;SDS_P1;SDS_P2;PMS_P1;PMS_P2;Temp;Humidity;BMP_temperature;BMP_pressure;BME280_temperature;BME280_humidity;BME280_pressure;Samples;Min_cycle;Max_cycle;Signal;HPM_P1;HPM_P2
2024/02/27 00:01:47;;;;;;;55.07;24.57;;;;;;;;;;5934475;24;20012;-75
2024/02/27 00:04:14;;;;;;;57.83;23.57;;;;;;;;;;5982502;24;20008;-72
2024/02/27 00:06:43;;;;;;;55.07;24.33;;;;;;;;;;5957890;24;20020;-74
2024/02/27 00:09:14;;;;;;;57.73;24.73;;;;;;;;;;5957618;24;20012;-74
2024/02/27 00:11:43;;;;;;;60.38;25.40;;;;;;;;;;5957658;24;20018;-74
2024/02/27 00:14:09;;;;;;;55.40;25.17;;;;;;;;;;5957658;24;20024;-76
2024/02/27 00:16:35;;;;;;;54.00;25.73;;;;;;;;;;5957370;24;20023;-75
2024/02/27 00:19:02;;;;;;;55.90;24.27;;;;;;;;;;5957175;24;20016;-74
2024/02/27 00:21:29;;;;;;;52.83;23.80;;;;;;;;;;5981844;24;20008;-73
2024/02/27 00:23:55;;;;;;;56.70;26.70;;;;;;;;;;5981873;24;20180;-74
2024/02/27 00:26:21;;;;;;;55.03;25.10;;;;;;;;;;5981715;24;20069;-75
2024/02/27 00:28:47;;;;;;;50.87;23.97;;;;;;;;;;5957167;24;20012;-74
2024/02/27 00:31:14;;;;;;;58.73;25.27;;;;;;;;;;5957405;24;20018;-74
2024/02/27 00:33:41;;;;;;;52.80;25.37;;;;;;;;;;5957325;24;20004;-75
2024/02/27 00:36:08;;;;;;;56.03;25.80;;;;;;;;;;5933908;24;20047;-74
2024/02/27 00:38:34;;;;;;;56.63;25.37;;;;;;;;;;5956664;24;20009;-75
2024/02/27 00:41:04;;;;;;;54.33;24.50;;;;;;;;;;5957191;24;20426;-74
2024/02/27 00:43:32;;;;;;;57.90;24.00;;;;;;;;;;5981872;24;20068;-75
2024/02/27 00:45:58;;;;;;;50.03;23.60;;;;;;;;;;5957289;24;20095;-73
2024/02/27 00:48:24;;;;;;;51.70;25.20;;;;;;;;;;5982393;24;20345;-75
2024/02/27 00:50:50;;;;;;;56.87;23.23;;;;;;;;;;5980607;24;20012;-73
2024/02/27 00:53:21;;;;;;;58.90;25.70;;;;;;;;;;5957409;23;20024;-74
2024/02/27 00:55:47;;;;;;;57.80;26.07;;;;;;;;;;5957067;24;20019;-75
2024/02/27 00:58:13;;;;;;;53.23;25.93;;;;;;;;;;5982002;24;20014;-74
2024/02/27 01:00:39;;;;;;;54.57;24.60;;;;;;;;;;5956410;24;20008;-74
2024/02/27 01:03:05;;;;;;;50.03;23.10;;;;;;;;;;5980048;24;20023;-74
2024/02/27 01:05:34;;;;;;;50.97;23.13;;;;;;;;;;5957936;24;20012;-74
2024/02/27 01:08:00;;;;;;;57.10;24.60;;;;;;;;;;5982172;24;20040;-76
2024/02/27 01:10:26;;;;;;;57.77;24.93;;;;;;;;;;5982368;24;20011;-77
2024/02/27 01:12:52;;;;;;;54.93;25.20;;;;;;;;;;5957759;24;20012;-74
2024/02/27 01:15:19;;;;;;;57.57;25.13;;;;;;;;;;5960311;24;20447;-77
2024/02/27 01:17:45;;;;;;;50.37;24.83;;;;;;;;;;5986057;24;20008;-75
2024/02/27 01:20:11;;;;;;;53.97;24.77;;;;;;;;;;5982639;24;20068;-73
2024/02/27 01:22:38;;;;;;;53.63;23.97;;;;;;;;;;5959474;24;20012;-74
2024/02/27 01:25:06;;;;;;;55.67;25.50;;;;;;;;;;5984223;24;20079;-76
2024/02/27 01:27:33;;;;;;;45.73;22.73;;;;;;;;;;5959430;24;20094;-74
2024/02/27 01:30:00;;;;;;;58.43;24.33;;;;;;;;;;5959442;24;20066;-76
2024/02/27 01:32:27;;;;;;;52.77;24.10;;;;;;;;;;5985728;24;20481;-74
2024/02/27 01:34:53;;;;;;;54.50;25.53;;;;;;;;;;5983608;24;20083;-74
2024/02/27 01:37:19;;;;;;;52.73;24.10;;;;;;;;;;5957498;24;20036;-73
2024/02/27 01:39:46;;;;;;;56.60;24.13;;;;;;;;;;5982363;24;20015;-74
2024/02/27 01:42:14;;;;;;;54.07;25.13;;;;;;;;;;5982359;24;20378;-74
2024/02/27 01:44:49;;;;;;;51.73;24.47;;;;;;;;;;5957462;24;20086;-74
2024/02/27 01:47:17;;;;;;;54.20;24.77;;;;;;;;;;5958009;24;20039;-74
2024/02/27 01:49:46;;;;;;;50.20;23.90;;;;;;;;;;5981957;23;20087;-76
2024/02/27 01:52:12;;;;;;;55.03;22.93;;;;;;;;;;5958194;23;20113;-74
2024/02/27 01:54:41;;;;;;;52.67;23.00;;;;;;;;;;5957781;24;20087;-76
2024/02/27 01:57:11;;;;;;;50.87;24.47;;;;;;;;;;5957285;24;20008;-76
2024/02/27 01:59:39;;;;;;;54.60;23.23;;;;;;;;;;5958019;24;20008;-75
2024/02/27 02:02:07;;;;;;;53.30;22.90;;;;;;;;;;5958400;24;20043;-74
2024/02/27 02:04:36;;;;;;;47.43;21.33;;;;;;;;;;5959092;24;20023;-75
2024/02/27 02:07:03;;;;;;;53.67;22.47;;;;;;;;;;5958855;24;20012;-73
2024/02/27 02:09:32;;;;;;;52.17;26.33;;;;;;;;;;5936930;24;20290;-73
2024/02/27 02:11:58;;;;;;;52.17;23.10;;;;;;;;;;5983925;24;20007;-77
2024/02/27 02:14:25;;;;;;;50.07;24.43;;;;;;;;;;5962029;24;20557;-73
2024/02/27 02:16:52;;;;;;;50.67;22.70;;;;;;;;;;5965010;24;20023;-71
2024/02/27 02:19:21;;;;;;;48.40;23.53;;;;;;;;;;5966385;24;20012;-78
2024/02/27 02:21:53;;;;;;;53.53;23.80;;;;;;;;;;5962316;24;20072;-76
2024/02/27 02:24:19;;;;;;;48.35;22.38;;;;;;;;;;5937819;24;20013;-74
2024/02/27 02:26:46;;;;;;;57.27;24.10;;;;;;;;;;5983552;24;20041;-76
2024/02/27 02:29:12;;;;;;;57.00;23.53;;;;;;;;;;5958621;24;20012;-73
2024/02/27 02:31:40;;;;;;;55.23;23.07;;;;;;;;;;5980777;24;20008;-75
2024/02/27 02:34:06;;;;;;;57.97;23.70;;;;;;;;;;5983262;24;20011;-74
2024/02/27 02:36:33;;;;;;;51.17;22.73;;;;;;;;;;5983978;24;20068;-72
2024/02/27 02:38:59;;;;;;;50.83;23.03;;;;;;;;;;5960668;24;20008;-73
2024/02/27 02:41:26;;;;;;;57.70;26.10;;;;;;;;;;5961569;24;20083;-73
2024/02/27 02:43:52;;;;;;;55.30;23.43;;;;;;;;;;5938882;24;20046;-71
2024/02/27 02:46:20;;;;;;;52.20;23.03;;;;;;;;;;5986829;24;20004;-75
2024/02/27 02:48:45;;;;;;;48.77;23.40;;;;;;;;;;5986043;24;20018;-74
2024/02/27 02:51:11;;;;;;;54.40;23.67;;;;;;;;;;5958694;24;20087;-75
2024/02/27 02:53:37;;;;;;;56.40;24.27;;;;;;;;;;5957965;24;20084;-73
2024/02/27 02:56:05;;;;;;;53.53;24.27;;;;;;;;;;5959943;24;20008;-76
2024/02/27 02:58:31;;;;;;;48.87;24.30;;;;;;;;;;5961142;24;20008;-73
2024/02/27 03:00:57;;;;;;;47.90;23.90;;;;;;;;;;5985267;24;20004;-74
2024/02/27 03:03:23;;;;;;;49.90;22.80;;;;;;;;;;5985397;24;20008;-75
2024/02/27 03:05:49;;;;;;;56.30;24.37;;;;;;;;;;5960276;24;20008;-75
2024/02/27 03:08:15;;;;;;;55.17;23.13;;;;;;;;;;5984094;24;20023;-73
2024/02/27 03:10:43;;;;;;;60.27;21.17;;;;;;;;;;5959322;24;20087;-76
2024/02/27 03:13:09;;;;;;;48.70;23.37;;;;;;;;;;5960073;24;20056;-74
2024/02/27 03:15:35;;;;;;;47.47;23.13;;;;;;;;;;5959193;24;20032;-76
2024/02/27 03:18:01;;;;;;;54.33;22.17;;;;;;;;;;5956909;24;20472;-75
2024/02/27 03:20:27;;;;;;;48.43;22.63;;;;;;;;;;5981065;24;20083;-74
2024/02/27 03:22:55;;;;;;;57.30;23.30;;;;;;;;;;5982118;24;20047;-69
2024/02/27 03:25:21;;;;;;;58.43;22.80;;;;;;;;;;5961644;24;20019;-75
2024/02/27 03:27:47;;;;;;;48.90;23.77;;;;;;;;;;5962057;24;20092;-75
2024/02/27 03:30:17;;;;;;;45.43;21.67;;;;;;;;;;5984137;24;20008;-76
2024/02/27 03:32:43;;;;;;;58.10;22.47;;;;;;;;;;5958541;24;20028;-74
2024/02/27 03:35:09;;;;;;;51.87;24.07;;;;;;;;;;5982090;24;20008;-76
2024/02/27 03:37:37;;;;;;;52.57;24.10;;;;;;;;;;5959688;24;20031;-73
2024/02/27 03:40:05;;;;;;;49.03;22.03;;;;;;;;;;5961477;24;20013;-74
2024/02/27 03:42:33;;;;;;;49.93;22.63;;;;;;;;;;5938889;24;20016;-74
2024/02/27 03:44:59;;;;;;;49.03;21.07;;;;;;;;;;5959041;24;20077;-73
2024/02/27 03:47:25;;;;;;;51.20;23.30;;;;;;;;;;5958365;24;20123;-71
2024/02/27 03:49:50;;;;;;;49.17;22.17;;;;;;;;;;5982144;24;20064;-74
2024/02/27 03:52:17;;;;;;;55.13;21.80;;;;;;;;;;5963654;23;20027;-74
2024/02/27 03:54:43;;;;;;;55.53;22.83;;;;;;;;;;5988234;23;20011;-74
2024/02/27 03:57:12;;;;;;;52.10;23.40;;;;;;;;;;6015704;23;20014;-74
2024/02/27 03:59:38;;;;;;;50.23;21.30;;;;;;;;;;5995491;23;20092;-72
2024/02/27 04:02:06;;;;;;;46.13;21.97;;;;;;;;;;6027094;23;20013;-73
2024/02/27 04:04:33;;;;;;;45.80;22.80;;;;;;;;;;6001866;23;20012;-73
2024/02/27 04:06:58;;;;;;;48.30;21.30;;;;;;;;;;6000581;23;20015;-72
2024/02/27 04:09:25;;;;;;;48.07;21.73;;;;;;;;;;6025263;23;20079;-74
2024/02/27 04:11:50;;;;;;;67.70;24.10;;;;;;;;;;6021453;23;20008;-74
2024/02/27 04:14:16;;;;;;;58.07;22.80;;;;;;;;;;6016559;23;20014;-73
2024/02/27 04:16:43;;;;;;;55.30;23.03;;;;;;;;;;5987103;23;20012;-74
2024/02/27 04:19:09;;;;;;;55.83;23.27;;;;;;;;;;5986735;23;20011;-74
2024/02/27 04:21:35;;;;;;;53.03;22.93;;;;;;;;;;6012128;23;20210;-74
2024/02/27 04:24:02;;;;;;;53.70;21.10;;;;;;;;;;5986452;23;20008;-74
2024/02/27 04:26:28;;;;;;;54.87;22.57;;;;;;;;;;6013142;23;20010;-73
2024/02/27 04:28:58;;;;;;;51.57;21.10;;;;;;;;;;5988895;23;20031;-76
2024/02/27 04:31:24;;;;;;;54.87;22.97;;;;;;;;;;6013400;23;20011;-73
2024/02/27 04:33:50;;;;;;;58.70;22.87;;;;;;;;;;5963470;23;20016;-71
2024/02/27 04:36:20;;;;;;;47.40;21.10;;;;;;;;;;6010071;23;20030;-76
2024/02/27 04:38:46;;;;;;;54.10;21.60;;;;;;;;;;5961274;23;20020;-75
2024/02/27 04:41:12;;;;;;;52.37;23.00;;;;;;;;;;6010170;23;20010;-75
2024/02/27 04:43:38;;;;;;;60.33;20.80;;;;;;;;;;5985931;23;20016;-75
2024/02/27 04:46:07;;;;;;;55.03;21.73;;;;;;;;;;5985185;23;20018;-75
2024/02/27 04:48:34;;;;;;;48.57;21.50;;;;;;;;;;5984841;23;20039;-73
2024/02/27 04:51:00;;;;;;;50.07;21.00;;;;;;;;;;5984213;23;20007;-73
2024/02/27 04:53:29;;;;;;;62.80;22.17;;;;;;;;;;5991344;23;20145;-70
2024/02/27 04:55:55;;;;;;;54.80;22.87;;;;;;;;;;5957150;24;20011;-72
2024/02/27 04:58:21;;;;;;;53.50;22.53;;;;;;;;;;5955962;24;20087;-74
2024/02/27 05:00:47;;;;;;;62.40;23.50;;;;;;;;;;5979180;24;20016;-74
2024/02/27 05:03:16;;;;;;;51.57;22.47;;;;;;;;;;5980505;24;20035;-74
2024/02/27 05:05:42;;;;;;;54.83;20.93;;;;;;;;;;5956246;24;20043;-76
2024/02/27 05:08:08;;;;;;;55.83;22.73;;;;;;;;;;5981261;24;20012;-73
2024/02/27 05:10:34;;;;;;;55.23;20.97;;;;;;;;;;5933398;24;20397;-72
2024/02/27 05:13:02;;;;;;;56.00;21.43;;;;;;;;;;5981390;24;20004;-71
2024/02/27 05:15:29;;;;;;;56.27;20.77;;;;;;;;;;5957606;24;20008;-74
2024/02/27 05:17:57;;;;;;;51.20;20.70;;;;;;;;;;5957877;24;20014;-74
2024/02/27 05:20:24;;;;;;;58.40;22.70;;;;;;;;;;5982565;24;20008;-73
2024/02/27 05:22:52;;;;;;;47.37;19.47;;;;;;;;;;5981948;24;20079;-74
2024/02/27 05:25:18;;;;;;;59.43;21.93;;;;;;;;;;5956641;24;20035;-75
2024/02/27 05:27:46;;;;;;;47.30;20.67;;;;;;;;;;5981373;24;20015;-74
2024/02/27 05:30:13;;;;;;;49.50;20.87;;;;;;;;;;5956745;24;20008;-74
2024/02/27 05:32:42;;;;;;;48.83;20.90;;;;;;;;;;5957722;24;20008;-74
2024/02/27 05:35:08;;;;;;;58.87;23.43;;;;;;;;;;5982999;24;20068;-75
2024/02/27 05:37:34;;;;;;;53.60;20.57;;;;;;;;;;5957482;24;20027;-74
2024/02/27 05:40:02;;;;;;;59.20;22.53;;;;;;;;;;5956515;24;20004;-74
2024/02/27 05:42:30;;;;;;;49.30;21.57;;;;;;;;;;5980964;24;20004;-74
2024/02/27 05:44:57;;;;;;;51.83;20.80;;;;;;;;;;5981642;24;20012;-70
2024/02/27 05:47:24;;;;;;;56.73;23.50;;;;;;;;;;5980279;24;20035;-71
2024/02/27 05:49:49;;;;;;;58.17;21.80;;;;;;;;;;5955137;24;20019;-71
2024/02/27 05:52:15;;;;;;;50.70;21.43;;;;;;;;;;5955446;23;20091;-71
2024/02/27 05:54:41;;;;;;;55.63;22.23;;;;;;;;;;5979150;24;20008;-71
2024/02/27 05:57:11;;;;;;;60.97;22.63;;;;;;;;;;5980498;24;20403;-71
2024/02/27 05:59:37;;;;;;;56.03;22.50;;;;;;;;;;5955552;24;20015;-72
2024/02/27 06:02:04;;;;;;;64.40;23.17;;;;;;;;;;5955924;24;20008;-71
2024/02/27 06:04:32;;;;;;;57.70;21.43;;;;;;;;;;5980124;24;20004;-71
2024/02/27 06:06:59;;;;;;;51.60;21.50;;;;;;;;;;5955808;24;20016;-71
2024/02/27 06:09:25;;;;;;;55.47;22.73;;;;;;;;;;5955848;24;20008;-71
2024/02/27 06:11:52;;;;;;;52.93;20.43;;;;;;;;;;5956093;24;20028;-72
2024/02/27 06:14:18;;;;;;;57.30;23.67;;;;;;;;;;5956026;24;20320;-71
2024/02/27 06:16:45;;;;;;;70.63;25.30;;;;;;;;;;5955819;24;20039;-72
2024/02/27 06:19:11;;;;;;;55.07;21.67;;;;;;;;;;5981160;24;20087;-71
2024/02/27 06:24:22;;;;;;;51.57;20.10;;;;;;;;;;5983250;24;20022;-71
2024/02/27 06:26:48;;;;;;;48.70;20.00;;;;;;;;;;5980765;24;20338;-72
2024/02/27 06:29:14;;;;;;;57.83;21.70;;;;;;;;;;5979565;24;20012;-71
2024/02/27 06:31:40;;;;;;;55.07;21.87;;;;;;;;;;5955500;24;20011;-70
2024/02/27 06:34:07;;;;;;;49.73;21.83;;;;;;;;;;5945821;24;20008;-71
2024/02/27 06:36:33;;;;;;;49.63;20.93;;;;;;;;;;5931109;24;20012;-73
2024/02/27 06:39:00;;;;;;;48.33;21.50;;;;;;;;;;5948696;24;20008;-73
2024/02/27 06:41:26;;;;;;;54.40;21.33;;;;;;;;;;5978895;24;20046;-73
2024/02/27 06:43:55;;;;;;;54.07;22.50;;;;;;;;;;5978787;24;20047;-73
2024/02/27 06:46:27;;;;;;;49.43;21.60;;;;;;;;;;5978052;24;20088;-73
2024/02/27 06:48:53;;;;;;;54.20;20.88;;;;;;;;;;5953394;24;20008;-72
2024/02/27 06:51:20;;;;;;;44.70;19.50;;;;;;;;;;5953903;24;20019;-73
2024/02/27 06:53:45;;;;;;;47.33;19.80;;;;;;;;;;5978567;23;20315;-71
2024/02/27 06:56:17;;;;;;;60.47;22.37;;;;;;;;;;5978603;24;20087;-74
2024/02/27 06:58:43;;;;;;;52.83;21.13;;;;;;;;;;5955232;24;20035;-72
2024/02/27 07:01:11;;;;;;;55.93;22.00;;;;;;;;;;5954662;24;20498;-70
2024/02/27 07:03:37;;;;;;;48.17;21.13;;;;;;;;;;5947706;24;20086;-71
2024/02/27 07:06:03;;;;;;;49.70;20.30;;;;;;;;;;5932112;24;20008;-73
2024/02/27 07:08:30;;;;;;;55.00;22.37;;;;;;;;;;5949462;24;20118;-71
2024/02/27 07:10:56;;;;;;;58.53;23.07;;;;;;;;;;5974941;24;20034;-70
2024/02/27 07:13:21;;;;;;;50.73;22.40;;;;;;;;;;5950438;24;20581;-71
2024/02/27 07:15:49;;;;;;;46.03;20.63;;;;;;;;;;5949636;24;20434;-72
2024/02/27 07:18:15;;;;;;;47.83;20.23;;;;;;;;;;5950307;24;20029;-69
2024/02/27 07:20:45;;;;;;;53.67;21.77;;;;;;;;;;5974529;24;20008;-72
2024/02/27 07:23:13;;;;;;;44.20;20.40;;;;;;;;;;5950472;24;20069;-71
2024/02/27 07:25:38;;;;;;;44.70;20.50;;;;;;;;;;5974718;24;20022;-70
2024/02/27 07:28:04;;;;;;;52.17;21.00;;;;;;;;;;5974923;24;20032;-71
2024/02/27 07:30:30;;;;;;;53.70;20.77;;;;;;;;;;5944021;24;20008;-70
2024/02/27 07:32:55;;;;;;;51.53;21.37;;;;;;;;;;5950711;24;20016;-71
2024/02/27 07:35:21;;;;;;;46.30;19.53;;;;;;;;;;5975130;24;20023;-71
2024/02/27 07:37:47;;;;;;;52.83;20.87;;;;;;;;;;5945456;24;20008;-71
2024/02/27 07:40:12;;;;;;;50.77;20.27;;;;;;;;;;5975694;24;20008;-71
2024/02/27 07:42:39;;;;;;;52.77;21.07;;;;;;;;;;5946824;24;20548;-74
2024/02/27 07:45:05;;;;;;;48.57;21.27;;;;;;;;;;5951389;24;20049;-72
2024/02/27 07:47:34;;;;;;;57.77;22.23;;;;;;;;;;5951850;24;20009;-72
2024/02/27 07:50:04;;;;;;;52.37;23.33;;;;;;;;;;5947365;24;20083;-71
2024/02/27 07:52:32;;;;;;;47.60;23.00;;;;;;;;;;5972809;23;20099;-73
2024/02/27 07:54:58;;;;;;;46.90;21.93;;;;;;;;;;5975912;24;20039;-72
2024/02/27 07:57:25;;;;;;;62.80;25.47;;;;;;;;;;5970897;24;20015;-72
2024/02/27 07:59:51;;;;;;;59.53;23.17;;;;;;;;;;5970857;24;20089;-74
2024/02/27 08:02:23;;;;;;;48.87;22.13;;;;;;;;;;5940655;24;20480;-71
2024/02/27 08:04:54;;;;;;;53.63;22.10;;;;;;;;;;5946745;24;20032;-71
2024/02/27 08:07:20;;;;;;;53.60;22.35;;;;;;;;;;5948047;24;20015;-70
2024/02/27 08:09:48;;;;;;;56.57;24.40;;;;;;;;;;5949207;24;20016;-71
2024/02/27 08:12:14;;;;;;;52.73;22.00;;;;;;;;;;5972091;24;20015;-72
2024/02/27 08:14:40;;;;;;;49.67;22.60;;;;;;;;;;5950061;24;20016;-72
2024/02/27 08:17:05;;;;;;;55.40;23.77;;;;;;;;;;5973320;24;20083;-71
2024/02/27 08:19:31;;;;;;;58.47;22.97;;;;;;;;;;5972377;24;20012;-72
2024/02/27 08:22:03;;;;;;;52.97;22.63;;;;;;;;;;5974413;24;20007;-73
2024/02/27 08:24:29;;;;;;;53.80;22.67;;;;;;;;;;5927538;24;20012;-72
2024/02/27 08:26:55;;;;;;;52.93;21.77;;;;;;;;;;5950579;24;20118;-71
2024/02/27 08:29:21;;;;;;;55.40;22.17;;;;;;;;;;5972804;24;20016;-72
2024/02/27 08:31:46;;;;;;;53.40;23.97;;;;;;;;;;5975321;24;20092;-74
2024/02/27 08:34:18;;;;;;;55.63;23.93;;;;;;;;;;5952513;24;19996;-74
2024/02/27 08:36:44;;;;;;;47.85;23.67;;;;;;;;;;5949623;24;20026;-70
2024/02/27 08:39:11;;;;;;;53.73;23.40;;;;;;;;;;5950498;24;20407;-72
2024/02/27 08:41:37;;;;;;;51.43;22.03;;;;;;;;;;5976609;24;20312;-72
2024/02/27 08:44:03;;;;;;;53.83;23.80;;;;;;;;;;5975646;24;20015;-72
2024/02/27 08:46:31;;;;;;;57.50;25.17;;;;;;;;;;5952350;24;20011;-74
2024/02/27 08:48:59;;;;;;;50.93;23.37;;;;;;;;;;5980077;24;20008;-72
2024/02/27 08:51:25;;;;;;;52.20;23.83;;;;;;;;;;5982124;23;20012;-70
2024/02/27 08:53:52;;;;;;;59.70;25.77;;;;;;;;;;5960139;23;20020;-73
2024/02/27 08:56:19;;;;;;;54.10;26.37;;;;;;;;;;5959826;24;20044;-70
2024/02/27 08:58:45;;;;;;;65.20;31.93;;;;;;;;;;5959581;24;20103;-72
2024/02/27 09:01:13;;;;;;;64.70;28.60;;;;;;;;;;5940111;24;20016;-71
2024/02/27 09:03:41;;;;;;;56.38;23.27;;;;;;;;;;5939918;24;20016;-69
2024/02/27 09:06:09;;;;;;;59.22;26.25;;;;;;;;;;5982044;24;20016;-72
2024/02/27 09:08:44;;;;;;;63.88;25.30;;;;;;;;;;5984114;24;20072;-72
2024/02/27 09:11:15;;;;;;;55.92;25.40;;;;;;;;;;5950175;24;20008;-70
2024/02/27 09:13:41;;;;;;;52.88;23.35;;;;;;;;;;5971847;24;20012;-71
2024/02/27 09:16:12;;;;;;;54.15;24.00;;;;;;;;;;5975638;24;20160;-71
2024/02/27 09:18:40;;;;;;;58.03;24.67;;;;;;;;;;5979709;24;20072;-72
2024/02/27 09:21:07;;;;;;;65.88;24.52;;;;;;;;;;5951950;24;20020;-71
2024/02/27 09:23:33;;;;;;;58.25;25.27;;;;;;;;;;5929320;24;20041;-69
2024/02/27 09:26:00;;;;;;;53.80;24.85;;;;;;;;;;5979281;24;20008;-71
2024/02/27 09:28:30;;;;;;;68.70;28.00;;;;;;;;;;5978572;24;20087;-69
2024/02/27 09:30:56;;;;;;;62.60;26.95;;;;;;;;;;5932831;24;20024;-71
2024/02/27 09:33:23;;;;;;;50.50;23.38;;;;;;;;;;5979553;24;20215;-72
2024/02/27 09:35:50;;;;;;;54.83;23.65;;;;;;;;;;5977232;24;20016;-71
2024/02/27 09:38:16;;;;;;;57.13;26.15;;;;;;;;;;5973848;24;20020;-75
2024/02/27 09:40:45;;;;;;;51.50;22.83;;;;;;;;;;5953907;24;20069;-71
2024/02/27 09:43:21;;;;;;;59.70;24.50;;;;;;;;;;5981076;24;20010;-71
2024/02/27 09:46:03;;;;;;;54.05;23.20;;;;;;;;;;5981785;24;20102;-72
2024/02/27 09:48:32;;;;;;;60.85;25.35;;;;;;;;;;5953414;24;20404;-72
2024/02/27 09:51:04;;;;;;;62.70;24.95;;;;;;;;;;5955367;24;20012;-72
2024/02/27 09:53:41;;;;;;;69.35;24.45;;;;;;;;;;5990385;23;20028;-70
2024/02/27 09:56:11;;;;;;;62.27;23.83;;;;;;;;;;5979670;24;20037;-72
2024/02/27 09:58:41;;;;;;;65.97;25.67;;;;;;;;;;5953739;24;20012;-73
2024/02/27 10:01:12;;;;;;;53.83;23.95;;;;;;;;;;5977919;24;20056;-69
2024/02/27 10:03:46;;;;;;;52.47;24.27;;;;;;;;;;5954039;24;20008;-71
2024/02/27 10:06:15;;;;;;;57.30;23.60;;;;;;;;;;5932251;24;20328;-70
2024/02/27 10:08:59;;;;;;;63.53;25.25;;;;;;;;;;5952500;24;20469;-72
2024/02/27 10:11:28;;;;;;;62.95;25.60;;;;;;;;;;5974747;24;20103;-71
2024/02/27 10:13:55;;;;;;;63.83;23.13;;;;;;;;;;5952515;24;20079;-74
2024/02/27 10:16:22;;;;;;;55.85;23.40;;;;;;;;;;5977204;24;20012;-70
2024/02/27 10:18:50;;;;;;;51.15;23.50;;;;;;;;;;5974338;24;20030;-73
2024/02/27 10:21:26;;;;;;;55.15;24.90;;;;;;;;;;5956135;24;20323;-70
2024/02/27 10:24:04;;;;;;;56.38;23.23;;;;;;;;;;5981336;24;20012;-70
2024/02/27 10:26:37;;;;;;;49.58;23.13;;;;;;;;;;5955840;24;20107;-71
2024/02/27 10:29:06;;;;;;;47.47;23.13;;;;;;;;;;5957377;24;20088;-69
2024/02/27 10:31:38;;;;;;;48.00;21.50;;;;;;;;;;5953197;24;20447;-71
2024/02/27 10:34:07;;;;;;;44.28;21.73;;;;;;;;;;5931961;24;20577;-71
2024/02/27 10:36:36;;;;;;;50.63;22.58;;;;;;;;;;5931114;24;20415;-71
2024/02/27 10:39:09;;;;;;;52.10;23.27;;;;;;;;;;5979492;24;20005;-72
2024/02/27 10:41:46;;;;;;;45.35;21.65;;;;;;;;;;5931587;24;20123;-72
2024/02/27 10:44:18;;;;;;;46.75;21.33;;;;;;;;;;5977566;24;20426;-71
2024/02/27 10:46:48;;;;;;;51.42;23.10;;;;;;;;;;5952505;24;20024;-72
2024/02/27 10:49:26;;;;;;;50.97;23.30;;;;;;;;;;5954892;23;20012;-71
2024/02/27 10:51:54;;;;;;;45.45;22.30;;;;;;;;;;5951305;24;20020;-72
2024/02/27 10:54:25;;;;;;;51.17;23.13;;;;;;;;;;5985850;23;20088;-71
2024/02/27 10:56:57;;;;;;;39.33;20.38;;;;;;;;;;5955190;24;20355;-72
2024/02/27 10:59:27;;;;;;;51.05;22.75;;;;;;;;;;5955950;24;20641;-72
2024/02/27 11:02:00;;;;;;;50.55;21.70;;;;;;;;;;5981188;24;20012;-72
2024/02/27 11:04:44;;;;;;;37.97;19.45;;;;;;;;;;5947263;24;20108;-72
2024/02/27 11:07:32;;;;;;;48.70;22.27;;;;;;;;;;5955306;24;20103;-72
2024/02/27 11:10:03;;;;;;;37.90;19.27;;;;;;;;;;5953791;24;20076;-72
2024/02/27 11:12:32;;;;;;;44.78;21.58;;;;;;;;;;5928200;24;20399;-71
2024/02/27 11:15:04;;;;;;;53.63;20.15;;;;;;;;;;5976437;24;20031;-71
2024/02/27 11:17:36;;;;;;;41.88;19.75;;;;;;;;;;5928534;24;20454;-72
2024/02/27 11:20:06;;;;;;;46.55;20.35;;;;;;;;;;5952193;24;20012;-71
2024/02/27 11:22:41;;;;;;;45.47;20.75;;;;;;;;;;5930617;24;20023;-72
2024/02/27 11:25:08;;;;;;;49.88;21.35;;;;;;;;;;5955119;24;20506;-71
2024/02/27 11:27:49;;;;;;;43.42;21.25;;;;;;;;;;5954205;24;20040;-71
2024/02/27 11:30:24;;;;;;;43.72;20.23;;;;;;;;;;5954226;24;20520;-73
2024/02/27 11:33:27;;;;;;;51.38;19.92;;;;;;;;;;5956887;24;20012;-72
2024/02/27 11:35:56;;;;;;;40.97;18.48;;;;;;;;;;5953421;24;20095;-72
2024/02/27 11:38:34;;;;;;;47.55;20.23;;;;;;;;;;5955696;24;20780;-72
2024/02/27 11:41:00;;;;;;;49.90;22.90;;;;;;;;;;5973870;24;20099;-73
2024/02/27 11:43:27;;;;;;;44.92;19.77;;;;;;;;;;5955983;24;20036;-72
2024/02/27 11:45:59;;;;;;;42.03;19.17;;;;;;;;;;5957609;24;20462;-73
2024/02/27 11:48:53;;;;;;;42.08;20.05;;;;;;;;;;5980681;24;20008;-72
2024/02/27 11:51:23;;;;;;;43.08;18.13;;;;;;;;;;5978283;23;20016;-71
2024/02/27 11:53:54;;;;;;;40.38;20.50;;;;;;;;;;5935374;23;20505;-71
2024/02/27 11:56:26;;;;;;;53.80;21.57;;;;;;;;;;5981233;24;20035;-73
2024/02/27 11:59:03;;;;;;;41.30;19.85;;;;;;;;;;5935267;24;20012;-73
2024/02/27 12:01:31;;;;;;;46.65;20.05;;;;;;;;;;5988813;24;20074;-72
2024/02/27 12:04:18;;;;;;;47.17;20.50;;;;;;;;;;5982284;24;20018;-71
2024/02/27 12:06:57;;;;;;;52.58;22.05;;;;;;;;;;5960449;24;20516;-72
2024/02/27 12:09:48;;;;;;;42.58;20.58;;;;;;;;;;5958967;24;20012;-72
2024/02/27 12:12:29;;;;;;;47.30;20.33;;;;;;;;;;5957405;24;20039;-72
2024/02/27 12:15:08;;;;;;;35.85;17.85;;;;;;;;;;5958081;24;20375;-72
2024/02/27 12:17:41;;;;;;;41.08;18.85;;;;;;;;;;5954246;24;20080;-73
2024/02/27 12:20:18;;;;;;;39.33;18.58;;;;;;;;;;5982549;24;20072;-73
2024/02/27 12:22:50;;;;;;;44.33;19.67;;;;;;;;;;5955741;24;20043;-73
2024/02/27 12:25:16;;;;;;;41.75;19.52;;;;;;;;;;5959562;24;20519;-74
2024/02/27 12:27:56;;;;;;;41.90;18.38;;;;;;;;;;5956489;24;20020;-72
2024/02/27 12:30:31;;;;;;;47.77;21.37;;;;;;;;;;5982369;24;20032;-73
2024/02/27 12:33:02;;;;;;;46.22;20.67;;;;;;;;;;5982476;24;20445;-73
2024/02/27 12:35:32;;;;;;;51.88;20.60;;;;;;;;;;5957796;24;20016;-71
2024/02/27 12:38:10;;;;;;;43.13;20.00;;;;;;;;;;5956613;24;20049;-72
2024/02/27 12:40:37;;;;;;;38.55;19.25;;;;;;;;;;5978996;24;20028;-73
2024/02/27 12:43:06;;;;;;;35.70;17.58;;;;;;;;;;5957231;24;20012;-73
2024/02/27 12:46:12;;;;;;;33.13;17.38;;;;;;;;;;5979001;24;20012;-72
2024/02/27 12:48:45;;;;;;;42.30;19.25;;;;;;;;;;5977362;24;20016;-72
2024/02/27 12:51:23;;;;;;;43.55;19.38;;;;;;;;;;5955485;24;20023;-72
2024/02/27 12:53:51;;;;;;;37.58;19.55;;;;;;;;;;5951395;23;20446;-72
2024/02/27 12:56:17;;;;;;;53.67;22.90;;;;;;;;;;5955873;24;20016;-72
2024/02/27 12:58:50;;;;;;;43.33;20.58;;;;;;;;;;5978791;24;20009;-73
2024/02/27 13:01:16;;;;;;;40.47;19.38;;;;;;;;;;5982513;24;20080;-73
2024/02/27 13:03:49;;;;;;;43.53;20.27;;;;;;;;;;5933914;24;20020;-74
2024/02/27 13:06:27;;;;;;;39.13;19.38;;;;;;;;;;5982179;24;20028;-72
2024/02/27 13:08:53;;;;;;;39.85;19.15;;;;;;;;;;5981452;24;20008;-72
2024/02/27 13:11:21;;;;;;;39.78;19.33;;;;;;;;;;5981732;24;20034;-71
2024/02/27 13:13:58;;;;;;;45.15;18.88;;;;;;;;;;5955687;24;20023;-71
2024/02/27 13:16:30;;;;;;;38.45;18.65;;;;;;;;;;5981610;24;20042;-72
2024/02/27 13:18:57;;;;;;;39.83;19.20;;;;;;;;;;5954359;24;20399;-72
2024/02/27 13:21:23;;;;;;;40.65;19.27;;;;;;;;;;5976720;24;20510;-72
2024/02/27 13:23:51;;;;;;;35.97;17.75;;;;;;;;;;5956086;24;20031;-72
2024/02/27 13:26:22;;;;;;;39.05;18.30;;;;;;;;;;5954978;24;20079;-73
2024/02/27 13:28:51;;;;;;;39.50;18.05;;;;;;;;;;5976752;24;20402;-69
2024/02/27 13:31:17;;;;;;;38.50;18.27;;;;;;;;;;5950125;24;20331;-70
2024/02/27 13:33:49;;;;;;;39.95;18.35;;;;;;;;;;5979898;24;20515;-72
2024/02/27 13:36:17;;;;;;;37.03;19.25;;;;;;;;;;5955306;24;20099;-74
2024/02/27 13:38:44;;;;;;;40.67;21.33;;;;;;;;;;5956216;24;20016;-72
2024/02/27 13:41:20;;;;;;;46.78;21.95;;;;;;;;;;5976924;24;20015;-72
2024/02/27 13:43:47;;;;;;;40.15;19.17;;;;;;;;;;5978725;24;20036;-73
2024/02/27 13:46:18;;;;;;;36.50;18.90;;;;;;;;;;5978261;24;20076;-72
2024/02/27 13:48:44;;;;;;;35.58;17.73;;;;;;;;;;5952777;24;20012;-73
2024/02/27 13:51:11;;;;;;;35.42;18.35;;;;;;;;;;5977419;23;20043;-71
2024/02/27 13:53:38;;;;;;;37.88;18.67;;;;;;;;;;5978076;23;20332;-70
2024/02/27 13:56:04;;;;;;;36.60;18.80;;;;;;;;;;5954278;24;20016;-70
2024/02/27 13:58:33;;;;;;;34.60;18.48;;;;;;;;;;5979574;24;20087;-71
2024/02/27 14:01:00;;;;;;;33.63;17.75;;;;;;;;;;5932621;24;20374;-70
2024/02/27 14:03:26;;;;;;;40.00;19.42;;;;;;;;;;5979692;24;20005;-72
2024/02/27 14:05:56;;;;;;;43.50;20.13;;;;;;;;;;5955427;24;20016;-70
2024/02/27 14:08:22;;;;;;;37.50;18.30;;;;;;;;;;5954420;24;20016;-70
2024/02/27 14:10:49;;;;;;;43.75;19.55;;;;;;;;;;5955990;24;20011;-73
2024/02/27 14:13:20;;;;;;;43.65;19.60;;;;;;;;;;5955115;24;20015;-71
2024/02/27 14:15:46;;;;;;;43.07;19.00;;;;;;;;;;5956300;24;20422;-70
2024/02/27 14:18:12;;;;;;;32.30;17.80;;;;;;;;;;5981280;24;20050;-73
2024/02/27 14:20:41;;;;;;;38.45;19.35;;;;;;;;;;5979662;24;20292;-72
2024/02/27 14:23:11;;;;;;;36.47;18.73;;;;;;;;;;5976921;24;20013;-71
2024/02/27 14:25:37;;;;;;;37.65;18.73;;;;;;;;;;5951134;24;20016;-71
2024/02/27 14:28:10;;;;;;;51.58;19.58;;;;;;;;;;5954074;24;20143;-71